sensor_id;sensor_type;location;lat;lon;timestamp;temperature;humidity
16814;DHT22;8524;57.650;11.926;2023-12-04T00:01:11;-4.30;99.90
16814;DHT22;8524;57.650;11.926;2023-12-04T00:03:40;-4.30;99.90
16814;DHT22;8524;57.650;11.926;2023-12-04T00:06:07;-4.30;99.90
16814;DHT22;8524;57.650;11.926;2023-12-04T00:08:36;-4.20;99.90
16814;DHT22;8524;57.650;11.926;2023-12-04T00:11:03;-4.20;99.90
16814;DHT22;8524;57.650;11.926;2023-12-04T00:13:30;-4.20;99.90
16814;DHT22;8524;57.650;11.926;2023-12-04T00:15:57;-4.30;99.90
16814;DHT22;8524;57.650;11.926;2023-12-04T00:18:24;-4.40;99.90
16814;DHT22;8524;57.650;11.926;2023-12-04T00:20:52;-4.30;99.90
16814;DHT22;8524;57.650;11.926;2023-12-04T00:23:19;-4.20;99.90
16814;DHT22;8524;57.650;11.926;2023-12-04T00:25:46;-4.20;99.90
16814;DHT22;8524;57.650;11.926;2023-12-04T00:28:13;-4.30;99.90
16814;DHT22;8524;57.650;11.926;2023-12-04T00:30:39;-4.30;99.90
16814;DHT22;8524;57.650;11.926;2023-12-04T00:33:06;-4.30;99.90
16814;DHT22;8524;57.650;11.926;2023-12-04T00:35:33;-4.30;99.90
16814;DHT22;8524;57.650;11.926;2023-12-04T00:38:01;-4.10;99.90
16814;DHT22;8524;57.650;11.926;2023-12-04T00:40:28;-4.10;99.90
16814;DHT22;8524;57.650;11.926;2023-12-04T00:42:55;-4.10;99.90
16814;DHT22;8524;57.650;11.926;2023-12-04T00:45:22;-4.20;99.90
16814;DHT22;8524;57.650;11.926;2023-12-04T00:47:49;-4.20;99.90
16814;DHT22;8524;57.650;11.926;2023-12-04T00:50:16;-4.10;99.90
16814;DHT22;8524;57.650;11.926;2023-12-04T00:52:43;-4.10;99.90
16814;DHT22;8524;57.650;11.926;2023-12-04T00:55:12;-4.10;99.90
16814;DHT22;8524;57.650;11.926;2023-12-04T00:57:39;-4.10;99.90
16814;DHT22;8524;57.650;11.926;2023-12-04T01:00:07;-4.20;99.90
16814;DHT22;8524;57.650;11.926;2023-12-04T01:02:34;-4.20;99.90
16814;DHT22;8524;57.650;11.926;2023-12-04T01:05:01;-4.20;99.90
16814;DHT22;8524;57.650;11.926;2023-12-04T01:07:28;-4.20;99.90
16814;DHT22;8524;57.650;11.926;2023-12-04T01:09:55;-4.30;99.90
16814;DHT22;8524;57.650;11.926;2023-12-04T01:12:23;-4.30;99.90
16814;DHT22;8524;57.650;11.926;2023-12-04T01:14:50;-4.20;99.90
16814;DHT22;8524;57.650;11.926;2023-12-04T01:17:17;-4.20;99.90
16814;DHT22;8524;57.650;11.926;2023-12-04T01:19:44;-4.20;99.90
16814;DHT22;8524;57.650;11.926;2023-12-04T01:22:11;-4.20;99.90
16814;DHT22;8524;57.650;11.926;2023-12-04T01:24:38;-4.20;99.90
16814;DHT22;8524;57.650;11.926;2023-12-04T01:27:05;-4.10;99.90
16814;DHT22;8524;57.650;11.926;2023-12-04T01:29:33;-4.10;99.90
16814;DHT22;8524;57.650;11.926;2023-12-04T01:32:00;-4.20;99.90
16814;DHT22;8524;57.650;11.926;2023-12-04T01:34:27;-4.10;99.90
16814;DHT22;8524;57.650;11.926;2023-12-04T01:36:54;-4.10;99.90
16814;DHT22;8524;57.650;11.926;2023-12-04T01:39:21;-4.00;99.90
16814;DHT22;8524;57.650;11.926;2023-12-04T01:41:48;-4.00;99.90
16814;DHT22;8524;57.650;11.926;2023-12-04T01:44:15;-3.90;99.90
16814;DHT22;8524;57.650;11.926;2023-12-04T01:46:44;-4.00;99.90
16814;DHT22;8524;57.650;11.926;2023-12-04T01:49:11;-4.00;99.90
16814;DHT22;8524;57.650;11.926;2023-12-04T01:51:38;-4.00;99.90
16814;DHT22;8524;57.650;11.926;2023-12-04T01:54:06;-4.10;99.90
16814;DHT22;8524;57.650;11.926;2023-12-04T01:56:34;-4.10;99.90
16814;DHT22;8524;57.650;11.926;2023-12-04T01:59:02;-4.00;99.90
16814;DHT22;8524;57.650;11.926;2023-12-04T02:01:30;-4.10;99.90
16814;DHT22;8524;57.650;11.926;2023-12-04T02:03:59;-4.10;99.90
16814;DHT22;8524;57.650;11.926;2023-12-04T02:06:27;-4.10;99.90
16814;DHT22;8524;57.650;11.926;2023-12-04T02:08:54;-4.20;99.90
16814;DHT22;8524;57.650;11.926;2023-12-04T02:11:22;-4.10;99.90
16814;DHT22;8524;57.650;11.926;2023-12-04T02:13:50;-4.00;99.90
16814;DHT22;8524;57.650;11.926;2023-12-04T02:16:18;-3.90;99.90
16814;DHT22;8524;57.650;11.926;2023-12-04T02:18:46;-3.90;99.90
16814;DHT22;8524;57.650;11.926;2023-12-04T02:21:14;-3.90;99.90
16814;DHT22;8524;57.650;11.926;2023-12-04T02:23:42;-3.80;99.90
16814;DHT22;8524;57.650;11.926;2023-12-04T02:26:14;-3.80;99.90
16814;DHT22;8524;57.650;11.926;2023-12-04T02:28:46;-3.80;99.90
16814;DHT22;8524;57.650;11.926;2023-12-04T02:31:18;-3.80;99.90
16814;DHT22;8524;57.650;11.926;2023-12-04T02:33:47;-3.70;99.90
16814;DHT22;8524;57.650;11.926;2023-12-04T02:36:15;-3.60;99.90
16814;DHT22;8524;57.650;11.926;2023-12-04T02:38:43;-3.60;99.90
16814;DHT22;8524;57.650;11.926;2023-12-04T02:41:11;-3.60;99.90
16814;DHT22;8524;57.650;11.926;2023-12-04T02:43:38;-3.60;99.90
16814;DHT22;8524;57.650;11.926;2023-12-04T02:46:05;-3.70;99.90
16814;DHT22;8524;57.650;11.926;2023-12-04T02:48:32;-3.70;99.90
16814;DHT22;8524;57.650;11.926;2023-12-04T02:50:59;-3.70;99.90
16814;DHT22;8524;57.650;11.926;2023-12-04T02:53:26;-3.70;99.90
16814;DHT22;8524;57.650;11.926;2023-12-04T02:55:53;-3.70;99.90
16814;DHT22;8524;57.650;11.926;2023-12-04T02:58:21;-3.60;99.90
16814;DHT22;8524;57.650;11.926;2023-12-04T03:00:48;-3.60;99.90
16814;DHT22;8524;57.650;11.926;2023-12-04T03:03:15;-3.60;99.90
16814;DHT22;8524;57.650;11.926;2023-12-04T03:05:42;-3.60;99.90
16814;DHT22;8524;57.650;11.926;2023-12-04T03:08:09;-3.70;99.90
16814;DHT22;8524;57.650;11.926;2023-12-04T03:10:36;-3.60;99.90
16814;DHT22;8524;57.650;11.926;2023-12-04T03:13:02;-3.60;99.90
16814;DHT22;8524;57.650;11.926;2023-12-04T03:15:31;-3.50;99.90
16814;DHT22;8524;57.650;11.926;2023-12-04T03:17:59;-3.50;99.90
16814;DHT22;8524;57.650;11.926;2023-12-04T03:20:26;-3.50;99.90
16814;DHT22;8524;57.650;11.926;2023-12-04T03:22:53;-3.50;99.90
16814;DHT22;8524;57.650;11.926;2023-12-04T03:25:20;-3.50;99.90
16814;DHT22;8524;57.650;11.926;2023-12-04T03:27:47;-3.60;99.90
16814;DHT22;8524;57.650;11.926;2023-12-04T03:30:14;-3.70;99.90
16814;DHT22;8524;57.650;11.926;2023-12-04T03:32:43;-3.70;99.90
16814;DHT22;8524;57.650;11.926;2023-12-04T03:35:10;-3.70;99.90
16814;DHT22;8524;57.650;11.926;2023-12-04T03:37:37;-3.70;99.90
16814;DHT22;8524;57.650;11.926;2023-12-04T03:40:04;-3.60;99.90
16814;DHT22;8524;57.650;11.926;2023-12-04T03:42:32;-3.50;99.90
16814;DHT22;8524;57.650;11.926;2023-12-04T03:44:59;-3.40;99.90
16814;DHT22;8524;57.650;11.926;2023-12-04T03:47:25;-3.40;99.90
16814;DHT22;8524;57.650;11.926;2023-12-04T03:49:54;-3.40;99.90
16814;DHT22;8524;57.650;11.926;2023-12-04T03:52:21;-3.40;99.90
16814;DHT22;8524;57.650;11.926;2023-12-04T03:54:48;-3.40;99.90
16814;DHT22;8524;57.650;11.926;2023-12-04T03:57:14;-3.50;99.90
16814;DHT22;8524;57.650;11.926;2023-12-04T03:59:41;-3.50;99.90
16814;DHT22;8524;57.650;11.926;2023-12-04T04:02:10;-3.60;99.90
16814;DHT22;8524;57.650;11.926;2023-12-04T04:04:36;-3.50;99.90
16814;DHT22;8524;57.650;11.926;2023-12-04T04:07:05;-3.50;99.90
16814;DHT22;8524;57.650;11.926;2023-12-04T04:09:32;-3.50;99.90
16814;DHT22;8524;57.650;11.926;2023-12-04T04:11:58;-3.60;99.90
16814;DHT22;8524;57.650;11.926;2023-12-04T04:14:25;-3.60;99.90
16814;DHT22;8524;57.650;11.926;2023-12-04T04:16:52;-3.60;99.90
16814;DHT22;8524;57.650;11.926;2023-12-04T04:19:19;-3.50;99.90
16814;DHT22;8524;57.650;11.926;2023-12-04T04:21:46;-3.40;99.90
16814;DHT22;8524;57.650;11.926;2023-12-04T04:24:14;-3.50;99.90
16814;DHT22;8524;57.650;11.926;2023-12-04T04:26:41;-3.50;99.90
16814;DHT22;8524;57.650;11.926;2023-12-04T04:29:08;-3.50;99.90
16814;DHT22;8524;57.650;11.926;2023-12-04T04:31:35;-3.50;99.90
16814;DHT22;8524;57.650;11.926;2023-12-04T04:34:02;-3.50;99.90
16814;DHT22;8524;57.650;11.926;2023-12-04T04:36:29;-3.50;99.90
16814;DHT22;8524;57.650;11.926;2023-12-04T04:38:56;-3.40;99.90
16814;DHT22;8524;57.650;11.926;2023-12-04T04:41:24;-3.40;99.90
16814;DHT22;8524;57.650;11.926;2023-12-04T04:43:51;-3.50;99.90
16814;DHT22;8524;57.650;11.926;2023-12-04T04:46:18;-3.50;99.90
16814;DHT22;8524;57.650;11.926;2023-12-04T04:48:46;-3.50;99.90
16814;DHT22;8524;57.650;11.926;2023-12-04T04:51:13;-3.40;99.90
16814;DHT22;8524;57.650;11.926;2023-12-04T04:53:40;-3.40;99.90
16814;DHT22;8524;57.650;11.926;2023-12-04T04:56:09;-3.30;99.90
16814;DHT22;8524;57.650;11.926;2023-12-04T04:58:37;-3.30;99.90
16814;DHT22;8524;57.650;11.926;2023-12-04T05:01:04;-3.20;99.90
16814;DHT22;8524;57.650;11.926;2023-12-04T05:03:31;-3.20;99.90
16814;DHT22;8524;57.650;11.926;2023-12-04T05:06:01;-3.10;99.90
16814;DHT22;8524;57.650;11.926;2023-12-04T05:08:28;-3.20;99.90
16814;DHT22;8524;57.650;11.926;2023-12-04T05:10:55;-3.20;99.90
16814;DHT22;8524;57.650;11.926;2023-12-04T05:13:22;-3.20;99.90
16814;DHT22;8524;57.650;11.926;2023-12-04T05:15:50;-3.20;99.90
16814;DHT22;8524;57.650;11.926;2023-12-04T05:18:17;-3.30;99.90
16814;DHT22;8524;57.650;11.926;2023-12-04T05:20:43;-3.30;99.90
16814;DHT22;8524;57.650;11.926;2023-12-04T05:23:10;-3.30;99.90
16814;DHT22;8524;57.650;11.926;2023-12-04T05:25:37;-3.40;99.90
16814;DHT22;8524;57.650;11.926;2023-12-04T05:28:04;-3.40;99.90
16814;DHT22;8524;57.650;11.926;2023-12-04T05:30:31;-3.30;99.90
16814;DHT22;8524;57.650;11.926;2023-12-04T05:32:59;-3.30;99.90
16814;DHT22;8524;57.650;11.926;2023-12-04T05:35:27;-3.20;99.90
16814;DHT22;8524;57.650;11.926;2023-12-04T05:37:54;-3.30;99.90
16814;DHT22;8524;57.650;11.926;2023-12-04T05:40:21;-3.40;99.90
16814;DHT22;8524;57.650;11.926;2023-12-04T05:42:48;-3.40;99.90
16814;DHT22;8524;57.650;11.926;2023-12-04T05:45:15;-3.30;99.90
16814;DHT22;8524;57.650;11.926;2023-12-04T05:47:42;-3.30;99.90
16814;DHT22;8524;57.650;11.926;2023-12-04T05:50:10;-3.30;99.90
16814;DHT22;8524;57.650;11.926;2023-12-04T05:52:37;-3.30;99.90
16814;DHT22;8524;57.650;11.926;2023-12-04T05:55:05;-3.30;99.90
16814;DHT22;8524;57.650;11.926;2023-12-04T05:57:32;-3.20;99.90
16814;DHT22;8524;57.650;11.926;2023-12-04T05:59:58;-3.20;99.90
16814;DHT22;8524;57.650;11.926;2023-12-04T06:02:25;-3.20;99.90
16814;DHT22;8524;57.650;11.926;2023-12-04T06:04:55;-3.20;99.90
16814;DHT22;8524;57.650;11.926;2023-12-04T06:07:23;-3.20;99.90
16814;DHT22;8524;57.650;11.926;2023-12-04T06:09:50;-3.10;99.90
16814;DHT22;8524;57.650;11.926;2023-12-04T06:12:17;-3.20;99.90
16814;DHT22;8524;57.650;11.926;2023-12-04T06:14:44;-3.20;99.90
16814;DHT22;8524;57.650;11.926;2023-12-04T06:17:11;-3.10;99.90
16814;DHT22;8524;57.650;11.926;2023-12-04T06:19:38;-3.10;99.90
16814;DHT22;8524;57.650;11.926;2023-12-04T06:22:05;-3.20;99.90
16814;DHT22;8524;57.650;11.926;2023-12-04T06:24:34;-3.20;99.90
16814;DHT22;8524;57.650;11.926;2023-12-04T06:27:01;-3.10;99.90
16814;DHT22;8524;57.650;11.926;2023-12-04T06:29:30;-3.10;99.90
16814;DHT22;8524;57.650;11.926;2023-12-04T06:31:58;-3.10;99.90
16814;DHT22;8524;57.650;11.926;2023-12-04T06:34:25;-3.10;99.90
16814;DHT22;8524;57.650;11.926;2023-12-04T06:36:53;-3.10;99.90
16814;DHT22;8524;57.650;11.926;2023-12-04T06:39:22;-3.10;99.90
16814;DHT22;8524;57.650;11.926;2023-12-04T06:41:52;-3.10;99.90
16814;DHT22;8524;57.650;11.926;2023-12-04T06:44:20;-3.00;99.90
16814;DHT22;8524;57.650;11.926;2023-12-04T06:46:49;-3.00;99.90
16814;DHT22;8524;57.650;11.926;2023-12-04T06:49:17;-3.00;99.90
16814;DHT22;8524;57.650;11.926;2023-12-04T06:51:44;-2.90;99.90
16814;DHT22;8524;57.650;11.926;2023-12-04T06:54:11;-2.90;99.90
16814;DHT22;8524;57.650;11.926;2023-12-04T06:56:39;-2.90;99.90
16814;DHT22;8524;57.650;11.926;2023-12-04T06:59:07;-2.90;99.90
16814;DHT22;8524;57.650;11.926;2023-12-04T07:01:34;-2.90;99.90
16814;DHT22;8524;57.650;11.926;2023-12-04T07:04:01;-2.90;99.90
16814;DHT22;8524;57.650;11.926;2023-12-04T07:06:35;-2.80;99.90
16814;DHT22;8524;57.650;11.926;2023-12-04T07:09:02;-2.80;99.90
16814;DHT22;8524;57.650;11.926;2023-12-04T07:11:30;-2.70;99.90
16814;DHT22;8524;57.650;11.926;2023-12-04T07:13:57;-2.70;99.90
16814;DHT22;8524;57.650;11.926;2023-12-04T07:16:26;-2.80;99.90
16814;DHT22;8524;57.650;11.926;2023-12-04T07:18:53;-2.70;99.90
16814;DHT22;8524;57.650;11.926;2023-12-04T07:21:21;-2.70;99.90
16814;DHT22;8524;57.650;11.926;2023-12-04T07:23:48;-2.60;99.90
16814;DHT22;8524;57.650;11.926;2023-12-04T07:26:15;-2.50;99.90
16814;DHT22;8524;57.650;11.926;2023-12-04T07:28:42;-2.50;99.90
16814;DHT22;8524;57.650;11.926;2023-12-04T07:31:09;-2.50;99.90
16814;DHT22;8524;57.650;11.926;2023-12-04T07:33:38;-2.60;99.90
16814;DHT22;8524;57.650;11.926;2023-12-04T07:36:06;-2.70;99.90
16814;DHT22;8524;57.650;11.926;2023-12-04T07:38:33;-2.60;99.90
16814;DHT22;8524;57.650;11.926;2023-12-04T07:41:00;-2.60;99.90
16814;DHT22;8524;57.650;11.926;2023-12-04T07:43:27;-2.70;99.90
16814;DHT22;8524;57.650;11.926;2023-12-04T07:45:55;-2.60;99.90
16814;DHT22;8524;57.650;11.926;2023-12-04T07:48:23;-2.70;99.90
16814;DHT22;8524;57.650;11.926;2023-12-04T07:50:51;-2.70;99.90
16814;DHT22;8524;57.650;11.926;2023-12-04T07:53:18;-2.70;99.90
16814;DHT22;8524;57.650;11.926;2023-12-04T07:55:45;-2.60;99.90
16814;DHT22;8524;57.650;11.926;2023-12-04T07:58:13;-2.60;99.90
16814;DHT22;8524;57.650;11.926;2023-12-04T08:00:41;-2.50;99.90
16814;DHT22;8524;57.650;11.926;2023-12-04T08:03:08;-2.50;99.90
16814;DHT22;8524;57.650;11.926;2023-12-04T08:05:34;-2.40;99.90
16814;DHT22;8524;57.650;11.926;2023-12-04T08:08:04;-2.40;99.90
16814;DHT22;8524;57.650;11.926;2023-12-04T08:10:31;-2.30;99.90
16814;DHT22;8524;57.650;11.926;2023-12-04T08:12:58;-2.30;99.90
16814;DHT22;8524;57.650;11.926;2023-12-04T08:15:25;-2.30;99.90
16814;DHT22;8524;57.650;11.926;2023-12-04T08:17:52;-2.30;99.90
16814;DHT22;8524;57.650;11.926;2023-12-04T08:20:21;-2.30;99.90
16814;DHT22;8524;57.650;11.926;2023-12-04T08:22:49;-2.30;99.90
16814;DHT22;8524;57.650;11.926;2023-12-04T08:25:17;-2.30;99.90
16814;DHT22;8524;57.650;11.926;2023-12-04T08:27:44;-2.30;99.90
16814;DHT22;8524;57.650;11.926;2023-12-04T08:30:15;-2.50;99.90
16814;DHT22;8524;57.650;11.926;2023-12-04T08:32:42;-2.40;99.90
16814;DHT22;8524;57.650;11.926;2023-12-04T08:35:10;-2.40;99.90
16814;DHT22;8524;57.650;11.926;2023-12-04T08:37:37;-2.40;99.90
16814;DHT22;8524;57.650;11.926;2023-12-04T08:40:05;-2.40;99.90
16814;DHT22;8524;57.650;11.926;2023-12-04T08:42:35;-2.30;99.90
16814;DHT22;8524;57.650;11.926;2023-12-04T08:45:03;-2.30;99.90
16814;DHT22;8524;57.650;11.926;2023-12-04T08:47:31;-2.40;99.90
16814;DHT22;8524;57.650;11.926;2023-12-04T08:50:00;-2.30;99.90
16814;DHT22;8524;57.650;11.926;2023-12-04T08:52:27;-2.30;99.90
16814;DHT22;8524;57.650;11.926;2023-12-04T08:54:54;-2.30;99.90
16814;DHT22;8524;57.650;11.926;2023-12-04T08:57:21;-2.40;99.90
16814;DHT22;8524;57.650;11.926;2023-12-04T08:59:49;-2.30;99.90
16814;DHT22;8524;57.650;11.926;2023-12-04T09:02:16;-2.30;99.90
16814;DHT22;8524;57.650;11.926;2023-12-04T09:04:43;-2.20;99.90
16814;DHT22;8524;57.650;11.926;2023-12-04T09:07:10;-2.20;99.90
16814;DHT22;8524;57.650;11.926;2023-12-04T09:09:37;-2.10;99.90
16814;DHT22;8524;57.650;11.926;2023-12-04T09:12:04;-2.00;99.90
16814;DHT22;8524;57.650;11.926;2023-12-04T09:14:33;-2.10;99.90
16814;DHT22;8524;57.650;11.926;2023-12-04T09:17:01;-2.00;99.90
16814;DHT22;8524;57.650;11.926;2023-12-04T09:19:29;-2.00;99.90
16814;DHT22;8524;57.650;11.926;2023-12-04T09:21:56;-2.10;99.90
16814;DHT22;8524;57.650;11.926;2023-12-04T09:24:23;-2.00;99.90
16814;DHT22;8524;57.650;11.926;2023-12-04T09:26:50;-1.90;99.90
16814;DHT22;8524;57.650;11.926;2023-12-04T09:29:17;-1.70;99.90
16814;DHT22;8524;57.650;11.926;2023-12-04T09:31:44;-1.70;99.90
16814;DHT22;8524;57.650;11.926;2023-12-04T09:34:12;-1.70;99.90
16814;DHT22;8524;57.650;11.926;2023-12-04T09:36:39;-1.70;99.90
16814;DHT22;8524;57.650;11.926;2023-12-04T09:39:06;-1.60;99.90
16814;DHT22;8524;57.650;11.926;2023-12-04T09:41:33;-1.60;99.90
16814;DHT22;8524;57.650;11.926;2023-12-04T09:44:01;-1.50;99.90
16814;DHT22;8524;57.650;11.926;2023-12-04T09:46:28;-1.60;99.90
16814;DHT22;8524;57.650;11.926;2023-12-04T09:48:56;-1.40;99.90
16814;DHT22;8524;57.650;11.926;2023-12-04T09:51:27;-1.40;99.90
16814;DHT22;8524;57.650;11.926;2023-12-04T09:53:54;-1.20;99.90
16814;DHT22;8524;57.650;11.926;2023-12-04T09:56:23;-1.20;99.90
16814;DHT22;8524;57.650;11.926;2023-12-04T09:58:52;-1.20;99.90
16814;DHT22;8524;57.650;11.926;2023-12-04T10:01:24;-1.20;99.90
16814;DHT22;8524;57.650;11.926;2023-12-04T10:03:51;-1.10;99.90
16814;DHT22;8524;57.650;11.926;2023-12-04T10:06:19;-1.10;99.90
16814;DHT22;8524;57.650;11.926;2023-12-04T10:08:48;-1.00;99.90
16814;DHT22;8524;57.650;11.926;2023-12-04T10:11:15;-1.00;99.90
16814;DHT22;8524;57.650;11.926;2023-12-04T10:13:45;-0.90;99.90
16814;DHT22;8524;57.650;11.926;2023-12-04T10:16:12;-1.00;99.90
16814;DHT22;8524;57.650;11.926;2023-12-04T10:18:39;-0.80;99.90
16814;DHT22;8524;57.650;11.926;2023-12-04T10:21:06;-0.80;99.90
16814;DHT22;8524;57.650;11.926;2023-12-04T10:23:38;-0.80;99.90
16814;DHT22;8524;57.650;11.926;2023-12-04T10:26:07;-0.70;99.90
16814;DHT22;8524;57.650;11.926;2023-12-04T10:28:33;-0.60;99.90
16814;DHT22;8524;57.650;11.926;2023-12-04T10:31:08;-0.70;99.90
16814;DHT22;8524;57.650;11.926;2023-12-04T10:33:36;-0.80;99.90
16814;DHT22;8524;57.650;11.926;2023-12-04T10:36:04;-0.90;99.90
16814;DHT22;8524;57.650;11.926;2023-12-04T10:38:37;-0.80;99.90
16814;DHT22;8524;57.650;11.926;2023-12-04T10:41:12;-0.70;99.90
16814;DHT22;8524;57.650;11.926;2023-12-04T10:43:46;-0.60;99.90
16814;DHT22;8524;57.650;11.926;2023-12-04T10:46:15;-0.50;99.90
16814;DHT22;8524;57.650;11.926;2023-12-04T10:48:45;-0.50;99.90
16814;DHT22;8524;57.650;11.926;2023-12-04T10:51:12;-0.40;99.90
16814;DHT22;8524;57.650;11.926;2023-12-04T10:53:39;-0.30;99.90
16814;DHT22;8524;57.650;11.926;2023-12-04T10:56:09;-0.10;99.90
16814;DHT22;8524;57.650;11.926;2023-12-04T10:58:39;-0.20;99.90
16814;DHT22;8524;57.650;11.926;2023-12-04T11:01:07;-0.20;99.90
16814;DHT22;8524;57.650;11.926;2023-12-04T11:03:43;-0.10;99.90
16814;DHT22;8524;57.650;11.926;2023-12-04T11:06:11;0.00;99.90
16814;DHT22;8524;57.650;11.926;2023-12-04T11:08:42;0.10;99.90
16814;DHT22;8524;57.650;11.926;2023-12-04T11:11:14;0.20;99.90
16814;DHT22;8524;57.650;11.926;2023-12-04T11:13:42;0.30;99.90
16814;DHT22;8524;57.650;11.926;2023-12-04T11:16:16;0.30;99.90
16814;DHT22;8524;57.650;11.926;2023-12-04T11:18:51;0.20;99.90
16814;DHT22;8524;57.650;11.926;2023-12-04T11:21:21;0.20;99.90
16814;DHT22;8524;57.650;11.926;2023-12-04T11:23:50;0.20;99.90
16814;DHT22;8524;57.650;11.926;2023-12-04T11:26:17;0.20;99.90
16814;DHT22;8524;57.650;11.926;2023-12-04T11:28:45;0.30;99.90
16814;DHT22;8524;57.650;11.926;2023-12-04T11:31:12;0.10;99.90
16814;DHT22;8524;57.650;11.926;2023-12-04T11:33:40;0.20;99.90
16814;DHT22;8524;57.650;11.926;2023-12-04T11:36:11;0.10;99.90
16814;DHT22;8524;57.650;11.926;2023-12-04T11:38:44;0.20;99.90
16814;DHT22;8524;57.650;11.926;2023-12-04T11:41:16;0.30;99.90
16814;DHT22;8524;57.650;11.926;2023-12-04T11:43:45;0.30;99.90
16814;DHT22;8524;57.650;11.926;2023-12-04T11:46:13;0.40;99.90
16814;DHT22;8524;57.650;11.926;2023-12-04T11:48:45;0.30;99.90
16814;DHT22;8524;57.650;11.926;2023-12-04T11:51:45;0.20;99.90
16814;DHT22;8524;57.650;11.926;2023-12-04T11:54:15;0.20;99.90
16814;DHT22;8524;57.650;11.926;2023-12-04T11:56:56;0.20;99.90
16814;DHT22;8524;57.650;11.926;2023-12-04T11:59:24;0.10;99.90
16814;DHT22;8524;57.650;11.926;2023-12-04T12:01:54;0.20;99.90
16814;DHT22;8524;57.650;11.926;2023-12-04T12:04:21;0.30;99.90
16814;DHT22;8524;57.650;11.926;2023-12-04T12:06:50;0.20;99.90
16814;DHT22;8524;57.650;11.926;2023-12-04T12:09:18;0.30;99.90
16814;DHT22;8524;57.650;11.926;2023-12-04T12:11:45;0.20;99.90
16814;DHT22;8524;57.650;11.926;2023-12-04T12:14:12;0.30;99.90
16814;DHT22;8524;57.650;11.926;2023-12-04T12:16:40;0.20;99.90
16814;DHT22;8524;57.650;11.926;2023-12-04T12:19:07;0.30;99.90
16814;DHT22;8524;57.650;11.926;2023-12-04T12:21:34;0.30;99.90
16814;DHT22;8524;57.650;11.926;2023-12-04T12:24:03;0.20;99.90
16814;DHT22;8524;57.650;11.926;2023-12-04T12:26:32;0.20;99.90
16814;DHT22;8524;57.650;11.926;2023-12-04T12:28:59;0.20;99.90
16814;DHT22;8524;57.650;11.926;2023-12-04T12:31:25;0.20;99.90
16814;DHT22;8524;57.650;11.926;2023-12-04T12:33:53;0.20;99.90
16814;DHT22;8524;57.650;11.926;2023-12-04T12:36:22;0.20;99.90
16814;DHT22;8524;57.650;11.926;2023-12-04T12:38:49;0.30;99.90
16814;DHT22;8524;57.650;11.926;2023-12-04T12:41:17;0.60;99.90
16814;DHT22;8524;57.650;11.926;2023-12-04T12:43:45;0.60;99.90
16814;DHT22;8524;57.650;11.926;2023-12-04T12:46:13;0.90;99.90
16814;DHT22;8524;57.650;11.926;2023-12-04T12:48:42;0.90;99.90
16814;DHT22;8524;57.650;11.926;2023-12-04T12:51:09;0.80;99.90
16814;DHT22;8524;57.650;11.926;2023-12-04T12:53:37;0.80;99.90
16814;DHT22;8524;57.650;11.926;2023-12-04T12:56:05;0.70;99.90
16814;DHT22;8524;57.650;11.926;2023-12-04T12:58:34;0.60;99.90
16814;DHT22;8524;57.650;11.926;2023-12-04T13:01:01;0.50;99.90
16814;DHT22;8524;57.650;11.926;2023-12-04T13:03:29;0.50;99.90
16814;DHT22;8524;57.650;11.926;2023-12-04T13:05:57;0.50;99.90
16814;DHT22;8524;57.650;11.926;2023-12-04T13:08:24;0.40;99.90
16814;DHT22;8524;57.650;11.926;2023-12-04T13:10:51;0.40;99.90
16814;DHT22;8524;57.650;11.926;2023-12-04T13:13:18;0.40;99.90
16814;DHT22;8524;57.650;11.926;2023-12-04T13:15:46;0.40;99.90
16814;DHT22;8524;57.650;11.926;2023-12-04T13:18:14;0.30;99.90
16814;DHT22;8524;57.650;11.926;2023-12-04T13:20:41;0.30;99.90
16814;DHT22;8524;57.650;11.926;2023-12-04T13:23:08;0.30;99.90
16814;DHT22;8524;57.650;11.926;2023-12-04T13:25:35;0.30;99.90
16814;DHT22;8524;57.650;11.926;2023-12-04T13:28:02;0.30;99.90
16814;DHT22;8524;57.650;11.926;2023-12-04T13:30:29;0.30;99.90
16814;DHT22;8524;57.650;11.926;2023-12-04T13:32:57;0.20;99.90
16814;DHT22;8524;57.650;11.926;2023-12-04T13:35:24;0.20;99.90
16814;DHT22;8524;57.650;11.926;2023-12-04T13:37:51;0.10;99.90
16814;DHT22;8524;57.650;11.926;2023-12-04T13:40:21;0.10;99.90
16814;DHT22;8524;57.650;11.926;2023-12-04T13:42:52;0.10;99.90
16814;DHT22;8524;57.650;11.926;2023-12-04T13:45:36;0.00;99.90
16814;DHT22;8524;57.650;11.926;2023-12-04T13:48:04;0.10;99.90
16814;DHT22;8524;57.650;11.926;2023-12-04T13:50:31;0.00;99.90
16814;DHT22;8524;57.650;11.926;2023-12-04T13:52:58;-0.10;99.90
16814;DHT22;8524;57.650;11.926;2023-12-04T13:55:26;0.00;99.90
16814;DHT22;8524;57.650;11.926;2023-12-04T13:58:13;-0.20;99.90
16814;DHT22;8524;57.650;11.926;2023-12-04T14:01:03;-0.10;99.90
16814;DHT22;8524;57.650;11.926;2023-12-04T14:03:40;-0.20;99.90
16814;DHT22;8524;57.650;11.926;2023-12-04T14:06:07;-0.20;99.90
16814;DHT22;8524;57.650;11.926;2023-12-04T14:08:35;-0.30;99.90
16814;DHT22;8524;57.650;11.926;2023-12-04T14:11:02;-0.30;99.90
16814;DHT22;8524;57.650;11.926;2023-12-04T14:13:29;-0.30;99.90
16814;DHT22;8524;57.650;11.926;2023-12-04T14:15:56;-0.30;99.90
16814;DHT22;8524;57.650;11.926;2023-12-04T14:18:24;-0.30;99.90
16814;DHT22;8524;57.650;11.926;2023-12-04T14:20:54;-0.30;99.90
16814;DHT22;8524;57.650;11.926;2023-12-04T14:23:21;-0.30;99.90
16814;DHT22;8524;57.650;11.926;2023-12-04T14:25:48;-0.30;99.90
16814;DHT22;8524;57.650;11.926;2023-12-04T14:28:15;-0.30;99.90
16814;DHT22;8524;57.650;11.926;2023-12-04T14:30:42;-0.30;99.90
16814;DHT22;8524;57.650;11.926;2023-12-04T14:33:09;-0.40;99.90
16814;DHT22;8524;57.650;11.926;2023-12-04T14:35:37;-0.40;99.90
16814;DHT22;8524;57.650;11.926;2023-12-04T14:38:05;-0.40;99.90
16814;DHT22;8524;57.650;11.926;2023-12-04T14:40:32;-0.50;99.90
16814;DHT22;8524;57.650;11.926;2023-12-04T14:42:59;-0.50;99.90
16814;DHT22;8524;57.650;11.926;2023-12-04T14:45:26;-0.40;99.90
16814;DHT22;8524;57.650;11.926;2023-12-04T14:47:52;-0.50;99.90
16814;DHT22;8524;57.650;11.926;2023-12-04T14:50:22;-0.40;99.90
16814;DHT22;8524;57.650;11.926;2023-12-04T14:52:49;-0.50;99.90
16814;DHT22;8524;57.650;11.926;2023-12-04T14:55:19;-0.50;99.90
16814;DHT22;8524;57.650;11.926;2023-12-04T14:58:32;-0.50;99.90
16814;DHT22;8524;57.650;11.926;2023-12-04T15:01:15;-0.50;99.90
16814;DHT22;8524;57.650;11.926;2023-12-04T15:03:58;-0.50;99.90
16814;DHT22;8524;57.650;11.926;2023-12-04T15:06:40;-0.50;99.90
16814;DHT22;8524;57.650;11.926;2023-12-04T15:09:31;-0.50;99.90
16814;DHT22;8524;57.650;11.926;2023-12-04T15:12:17;-0.50;99.90
16814;DHT22;8524;57.650;11.926;2023-12-04T15:14:53;-0.50;99.90
16814;DHT22;8524;57.650;11.926;2023-12-04T15:17:23;-0.40;99.90
16814;DHT22;8524;57.650;11.926;2023-12-04T15:19:58;-0.40;99.90
16814;DHT22;8524;57.650;11.926;2023-12-04T15:22:46;-0.40;99.90
16814;DHT22;8524;57.650;11.926;2023-12-04T15:25:13;-0.50;99.90
16814;DHT22;8524;57.650;11.926;2023-12-04T15:27:42;-0.50;99.90
16814;DHT22;8524;57.650;11.926;2023-12-04T15:30:09;-0.50;99.90
16814;DHT22;8524;57.650;11.926;2023-12-04T15:32:38;-0.50;99.90
16814;DHT22;8524;57.650;11.926;2023-12-04T15:35:04;-0.50;99.90
16814;DHT22;8524;57.650;11.926;2023-12-04T15:37:31;-0.60;99.90
16814;DHT22;8524;57.650;11.926;2023-12-04T15:39:57;-0.60;99.90